Time;durP1;ratioP1;P1;durP2;ratioP2;P2;SDS_P1;SDS_P2;PMS_P1;PMS_P2;Temp;Humidity;BMP_temperature;BMP_pressure;BME280_temperature;BME280_humidity;BME280_pressure;Samples;Min_cycle;Max_cycle;Signal;HPM_P1;HPM_P2
2022/10/30 00:04:18;;;;;;;10.07;5.30;;;18.50;52.30;;;;;;21164330;28;20053;-60
2022/10/30 00:14:19;;;;;;;12.88;6.78;;;18.50;52.40;;;;;;21164433;28;20070;-60
2022/10/30 00:24:23;;;;;;;10.17;5.87;;;18.30;53.00;;;;;;21164328;28;20048;-61
2022/10/30 00:34:25;;;;;;;12.18;5.38;;;18.20;53.20;;;;;;21164145;28;20288;-60
2022/10/30 00:44:31;;;;;;;13.88;5.20;;;18.20;53.60;;;;;;21161804;28;20055;-61
2022/10/30 00:54:34;;;;;;;10.23;4.97;;;18.10;53.80;;;;;;21161672;28;20098;-60
2022/10/30 01:04:38;;;;;;;10.13;5.75;;;17.90;54.20;;;;;;21162135;28;20055;-61
2022/10/30 01:14:54;;;;;;;10.77;5.72;;;17.80;54.80;;;;;;21162485;28;20507;-60
2022/10/30 01:25:18;;;;;;;12.02;6.15;;;17.70;54.40;;;;;;21168063;28;20062;-60
2022/10/30 01:35:38;;;;;;;9.32;5.32;;;17.70;54.60;;;;;;21178260;28;20056;-60
2022/10/30 01:46:01;;;;;;;11.63;6.55;;;17.60;55.30;;;;;;21175780;28;20050;-60
2022/10/30 01:56:57;;;;;;;14.27;6.30;;;17.60;55.70;;;;;;21175251;28;20081;-60
2022/10/30 02:07:11;;;;;;;;;;;17.60;55.70;;;;;;20833385;28;20073;-59
2022/10/30 02:17:31;;;;;;;15.52;6.68;;;17.50;56.10;;;;;;20831581;28;20340;-59
2022/10/30 02:27:42;;;;;;;12.20;5.88;;;17.50;56.30;;;;;;20831511;28;20053;-60
2022/10/30 02:38:03;;;;;;;13.57;6.40;;;17.50;56.20;;;;;;20988286;28;20062;-62
2022/10/30 02:48:24;;;;;;;13.10;5.28;;;17.50;56.70;;;;;;21171881;28;20044;-61
2022/10/30 02:58:42;;;;;;;8.75;5.65;;;17.30;56.20;;;;;;21171282;28;20047;-62
2022/10/30 03:08:56;;;;;;;10.27;4.87;;;17.20;55.90;;;;;;21170249;28;20120;-60
2022/10/30 03:19:18;;;;;;;10.13;5.47;;;17.00;56.10;;;;;;21168681;28;20300;-59
2022/10/30 03:29:27;;;;;;;13.20;6.55;;;16.90;56.50;;;;;;21168194;28;20048;-60
2022/10/30 03:39:36;;;;;;;10.30;5.50;;;16.80;57.00;;;;;;21167952;28;20054;-61
2022/10/30 03:49:39;;;;;;;9.43;5.50;;;16.80;57.10;;;;;;21165761;28;20075;-62
2022/10/30 03:59:44;;;;;;;9.35;5.15;;;16.70;57.20;;;;;;21166190;28;20307;-60
2022/10/30 04:09:49;;;;;;;10.05;6.05;;;16.70;57.60;;;;;;21166309;28;20449;-60
2022/10/30 04:19:56;;;;;;;9.10;5.63;;;16.60;58.60;;;;;;21164606;28;20502;-59
2022/10/30 04:30:01;;;;;;;8.60;5.65;;;16.50;58.70;;;;;;21164173;28;20051;-59
2022/10/30 04:40:07;;;;;;;10.57;5.68;;;16.40;58.90;;;;;;21163609;28;20043;-60
2022/10/30 04:50:29;;;;;;;12.00;6.05;;;16.40;59.20;;;;;;21162848;28;20399;-61
2022/10/30 05:00:31;;;;;;;10.05;6.72;;;16.40;59.40;;;;;;21173029;28;20400;-60
2022/10/30 05:10:32;;;;;;;11.80;6.35;;;16.30;59.60;;;;;;21180604;28;20476;-60
2022/10/30 05:20:34;;;;;;;9.90;6.00;;;16.20;59.90;;;;;;21179245;28;20096;-60
2022/10/30 05:30:37;;;;;;;8.60;5.80;;;16.20;60.00;;;;;;21178455;28;20179;-60
2022/10/30 05:40:40;;;;;;;12.55;5.93;;;16.10;60.00;;;;;;21178139;28;20086;-61
2022/10/30 05:50:42;;;;;;;12.32;6.65;;;16.10;60.10;;;;;;21176213;28;20054;-61
2022/10/30 06:00:44;;;;;;;9.38;6.20;;;16.00;60.20;;;;;;21175813;28;20043;-65
2022/10/30 06:10:46;;;;;;;10.05;5.93;;;16.00;60.80;;;;;;21174004;28;20043;-60
2022/10/30 06:20:49;;;;;;;16.25;6.80;;;16.00;60.90;;;;;;21174468;28;20054;-60
2022/10/30 06:30:53;;;;;;;10.70;6.35;;;16.00;61.00;;;;;;21174460;28;20047;-62
2022/10/30 06:40:55;;;;;;;11.30;6.18;;;16.10;60.80;;;;;;21172756;28;20056;-60
2022/10/30 06:50:58;;;;;;;12.85;6.65;;;15.90;61.40;;;;;;21171269;28;20044;-60
2022/10/30 07:01:01;;;;;;;12.23;7.05;;;15.90;61.40;;;;;;21171737;28;20060;-62
2022/10/30 07:11:03;;;;;;;15.80;7.07;;;15.90;61.40;;;;;;21170697;28;20506;-63
2022/10/30 07:21:06;;;;;;;10.48;6.75;;;15.90;61.50;;;;;;21169183;28;20052;-61
2022/10/30 07:31:08;;;;;;;9.57;7.07;;;16.00;61.40;;;;;;21168741;28;20471;-60
2022/10/30 07:41:10;;;;;;;12.90;6.72;;;15.90;61.50;;;;;;21167714;28;20484;-60
2022/10/30 07:51:14;;;;;;;12.05;6.90;;;15.80;62.00;;;;;;21166273;28;20052;-60
2022/10/30 08:01:16;;;;;;;14.57;7.90;;;15.90;61.60;;;;;;21166021;28;20043;-62
2022/10/30 08:11:18;;;;;;;17.85;7.50;;;16.00;61.30;;;;;;21166351;28;20043;-60
2022/10/30 08:21:20;;;;;;;16.23;8.48;;;16.00;61.50;;;;;;21164980;28;20474;-60
2022/10/30 08:31:21;;;;;;;11.68;8.10;;;16.20;61.20;;;;;;21164535;28;20124;-60
2022/10/30 08:41:23;;;;;;;13.82;8.02;;;16.30;60.80;;;;;;21164221;28;20089;-61
2022/10/30 08:51:25;;;;;;;13.73;8.05;;;16.60;60.50;;;;;;21162994;28;20401;-60
2022/10/30 09:01:27;;;;;;;15.80;8.35;;;16.80;59.90;;;;;;21162709;28;20044;-61
2022/10/30 09:11:29;;;;;;;15.02;7.00;;;17.10;59.00;;;;;;21162908;28;20125;-62
2022/10/30 09:21:32;;;;;;;12.27;7.43;;;17.20;57.60;;;;;;21162047;28;20063;-60
2022/10/30 09:31:34;;;;;;;12.60;7.40;;;17.40;57.60;;;;;;21161026;28;20043;-60
2022/10/30 09:41:55;;;;;;;15.90;7.95;;;17.70;57.20;;;;;;21161085;28;20052;-61
2022/10/30 09:52:22;;;;;;;12.70;7.97;;;17.80;57.00;;;;;;21176643;28;20044;-62
2022/10/30 10:02:57;;;;;;;14.82;8.45;;;18.10;56.60;;;;;;21175684;28;20192;-60
2022/10/30 10:13:03;;;;;;;13.57;8.43;;;18.40;56.20;;;;;;21174194;28;20071;-60
2022/10/30 10:23:32;;;;;;;76.65;15.48;;;18.60;56.00;;;;;;21173728;28;20051;-61
2022/10/30 10:33:44;;;;;;;11.57;8.70;;;18.70;56.50;;;;;;21165058;28;20044;-62
2022/10/30 10:44:14;;;;;;;15.35;8.57;;;18.90;56.40;;;;;;21171864;28;20067;-62
2022/10/30 10:54:23;;;;;;;12.55;9.25;;;19.00;56.60;;;;;;21171141;28;20043;-62
2022/10/30 11:04:42;;;;;;;14.30;9.85;;;19.20;56.40;;;;;;21171655;28;20544;-60
2022/10/30 11:14:43;;;;;;;24.67;15.88;;;19.30;56.30;;;;;;21169545;28;20047;-61
2022/10/30 11:24:48;;;;;;;15.88;10.20;;;19.20;56.30;;;;;;21168673;28;20051;-59
2022/10/30 11:35:12;;;;;;;17.55;10.60;;;19.30;56.30;;;;;;21167965;28;20074;-59
2022/10/30 11:45:29;;;;;;;15.23;10.20;;;19.40;56.00;;;;;;21166960;28;20087;-61
2022/10/30 11:55:38;;;;;;;16.05;11.07;;;19.40;56.20;;;;;;21166522;28;20136;-61
2022/10/30 12:05:40;;;;;;;16.70;10.50;;;19.60;56.10;;;;;;21165059;28;20511;-60
2022/10/30 12:15:46;;;;;;;13.98;10.82;;;19.70;55.70;;;;;;21165871;28;20040;-61
2022/10/30 12:25:52;;;;;;;16.42;11.55;;;19.90;55.40;;;;;;21164108;28;20083;-62
2022/10/30 12:35:59;;;;;;;16.00;10.95;;;20.00;54.90;;;;;;21163758;28;20055;-59
2022/10/30 12:46:15;;;;;;;16.50;12.18;;;20.10;54.40;;;;;;21162629;28;20059;-61
2022/10/30 12:56:30;;;;;;;14.50;11.27;;;20.20;54.20;;;;;;21163233;28;20400;-62
2022/10/30 13:06:48;;;;;;;18.95;12.27;;;20.20;54.00;;;;;;21162117;28;20138;-60
2022/10/30 13:16:53;;;;;;;16.33;11.73;;;20.10;54.20;;;;;;21163077;28;20547;-60
2022/10/30 13:27:08;;;;;;;17.38;10.75;;;20.00;55.40;;;;;;21179216;28;20048;-62
2022/10/30 13:37:42;;;;;;;18.17;12.05;;;20.10;54.30;;;;;;21178151;28;20048;-60
2022/10/30 13:48:08;;;;;;;;;;;20.10;54.60;;;;;;21149326;28;20057;-60
2022/10/30 13:58:41;;;;;;;24.95;14.07;;;19.90;54.80;;;;;;20833319;28;19925;-61
2022/10/30 14:09:01;;;;;;;21.03;14.03;;;20.10;54.80;;;;;;20832796;28;20055;-60
2022/10/30 14:19:06;;;;;;;22.10;15.85;;;20.00;54.80;;;;;;20831843;28;20049;-60
2022/10/30 14:29:34;;;;;;;34.22;13.45;;;20.20;54.30;;;;;;20926201;28;20121;-61
2022/10/30 14:39:45;;;;;;;16.40;12.45;;;20.40;53.40;;;;;;21170620;28;20059;-60
2022/10/30 14:50:00;;;;;;;18.70;12.50;;;20.20;53.60;;;;;;21171686;28;20062;-61
2022/10/30 15:00:23;;;;;;;18.23;12.57;;;20.20;54.70;;;;;;21171396;28;20391;-61
2022/10/30 15:10:25;;;;;;;19.27;13.00;;;20.20;54.10;;;;;;21156122;28;20093;-60
2022/10/30 15:20:32;;;;;;;19.70;12.80;;;20.20;54.60;;;;;;21168637;28;20047;-60
2022/10/30 15:30:34;;;;;;;19.35;13.02;;;20.20;54.90;;;;;;21168426;28;20192;-60
2022/10/30 15:40:37;;;;;;;18.48;11.25;;;20.10;54.80;;;;;;21167022;28;20055;-60
2022/10/30 15:50:44;;;;;;;19.38;12.13;;;20.10;54.10;;;;;;21166595;28;20083;-61
2022/10/30 16:01:00;;;;;;;18.92;12.13;;;20.10;53.50;;;;;;21165729;28;20158;-62
2022/10/30 16:11:02;;;;;;;15.93;10.00;;;20.10;53.60;;;;;;21166020;28;20074;-61
2022/10/30 16:21:08;;;;;;;19.02;13.13;;;20.10;54.00;;;;;;21164175;28;20051;-59
2022/10/30 16:31:14;;;;;;;22.45;13.35;;;20.10;54.50;;;;;;21163881;28;20051;-61
2022/10/30 16:41:18;;;;;;;19.75;12.00;;;20.00;54.70;;;;;;21162913;28;20089;-61
2022/10/30 16:51:21;;;;;;;17.80;12.15;;;19.90;54.50;;;;;;21134252;28;20052;-59
2022/10/30 17:01:26;;;;;;;21.17;13.63;;;19.90;54.70;;;;;;21095164;28;20400;-59
2022/10/30 17:11:46;;;;;;;22.83;12.10;;;19.80;55.10;;;;;;21094487;28;20484;-61
2022/10/30 17:21:51;;;;;;;22.23;13.13;;;19.70;55.10;;;;;;21095091;28;20052;-61
2022/10/30 17:31:57;;;;;;;18.23;13.00;;;19.70;55.90;;;;;;21094757;28;20059;-61
2022/10/30 17:41:59;;;;;;;17.17;11.65;;;19.40;56.80;;;;;;21093574;28;20477;-61
2022/10/30 17:52:01;;;;;;;19.35;11.10;;;19.30;55.90;;;;;;21091344;28;20127;-60
2022/10/30 18:02:13;;;;;;;19.02;11.13;;;19.20;56.30;;;;;;21090677;28;20055;-61
2022/10/30 18:12:16;;;;;;;16.23;10.63;;;19.20;56.30;;;;;;21090873;28;20446;-61
2022/10/30 18:22:17;;;;;;;17.83;10.85;;;19.00;57.50;;;;;;21089885;28;20495;-61
2022/10/30 18:32:20;;;;;;;18.02;11.13;;;18.80;57.80;;;;;;21088564;28;20053;-61
2022/10/30 18:42:22;;;;;;;20.58;11.85;;;18.70;58.00;;;;;;21069881;28;20131;-61
2022/10/30 18:52:23;;;;;;;22.55;14.25;;;18.70;58.60;;;;;;21086311;28;20052;-62
2022/10/30 19:02:25;;;;;;;18.80;12.55;;;18.70;58.90;;;;;;21086673;28;20051;-61
2022/10/30 19:12:26;;;;;;;16.17;10.48;;;18.60;59.10;;;;;;21085933;28;20408;-61
2022/10/30 19:22:29;;;;;;;17.25;11.27;;;18.40;59.50;;;;;;21085416;28;20048;-61
2022/10/30 19:32:30;;;;;;;15.85;10.63;;;18.20;60.20;;;;;;21084022;28;20048;-62
2022/10/30 19:42:32;;;;;;;29.92;9.65;;;18.10;60.80;;;;;;21083289;28;20087;-59
2022/10/30 19:52:33;;;;;;;15.88;10.70;;;17.90;61.20;;;;;;21081966;28;20086;-62
2022/10/30 20:02:36;;;;;;;16.30;10.57;;;17.80;61.50;;;;;;21081198;28;20146;-61
2022/10/30 20:12:38;;;;;;;17.83;11.70;;;17.70;61.90;;;;;;21080880;28;20094;-60
2022/10/30 20:22:40;;;;;;;16.95;10.60;;;17.50;62.90;;;;;;21080146;28;20047;-61
2022/10/30 20:32:42;;;;;;;15.82;10.45;;;17.30;63.60;;;;;;21078939;28;20123;-60
2022/10/30 20:42:44;;;;;;;14.55;10.80;;;17.20;64.10;;;;;;21079003;28;20506;-59
2022/10/30 20:52:46;;;;;;;14.27;9.80;;;17.00;64.70;;;;;;21078840;28;20500;-60
2022/10/30 21:02:48;;;;;;;15.00;10.48;;;16.80;65.10;;;;;;21077897;28;20080;-60
2022/10/30 21:12:50;;;;;;;15.57;12.20;;;16.70;65.40;;;;;;21077775;28;20138;-60
2022/10/30 21:22:51;;;;;;;14.88;10.82;;;16.70;65.70;;;;;;21079154;28;20446;-61
2022/10/30 21:32:54;;;;;;;11.90;9.32;;;16.40;66.10;;;;;;21078146;28;20056;-61
2022/10/30 21:42:55;;;;;;;15.57;10.70;;;16.30;66.40;;;;;;21085087;28;20048;-60
2022/10/30 21:52:58;;;;;;;14.88;11.00;;;16.20;66.80;;;;;;21092503;28;20052;-61
2022/10/30 22:02:59;;;;;;;16.85;11.07;;;16.10;67.00;;;;;;21091535;28;20052;-61
2022/10/30 22:13:01;;;;;;;17.88;11.50;;;16.00;67.10;;;;;;21091132;28;20068;-59
2022/10/30 22:23:02;;;;;;;16.40;10.80;;;15.90;67.30;;;;;;21089847;28;20225;-60
2022/10/30 22:33:03;;;;;;;14.35;9.18;;;15.70;67.60;;;;;;21088952;28;20040;-59
2022/10/30 22:43:05;;;;;;;17.85;11.68;;;15.50;67.90;;;;;;21069647;28;20055;-59
2022/10/30 22:53:07;;;;;;;14.82;10.77;;;15.30;68.50;;;;;;21086573;28;20048;-59
2022/10/30 23:03:08;;;;;;;14.98;10.13;;;15.20;68.90;;;;;;21087059;28;20063;-59
2022/10/30 23:13:10;;;;;;;15.27;10.07;;;15.20;69.10;;;;;;21086151;28;20059;-59
2022/10/30 23:23:12;;;;;;;16.10;11.27;;;15.20;68.80;;;;;;21084729;28;20056;-61
2022/10/30 23:33:14;;;;;;;14.70;11.38;;;15.20;68.80;;;;;;21084967;28;20051;-58
2022/10/30 23:43:15;;;;;;;15.07;11.18;;;15.20;69.30;;;;;;21083979;28;20087;-60
2022/10/30 23:53:17;;;;;;;20.20;13.57;;;15.20;69.20;;;;;;21082771;28;20041;-59
